sensor_id;sensor_type;location;lat;lon;timestamp;P1;durP1;ratioP1;P2;durP2;ratioP2
54171;SDS011;40076;52.354;4.970;2023-04-25T00:01:56;15.77;;;3.50;;
54171;SDS011;40076;52.354;4.970;2023-04-25T00:04:21;22.23;;;3.67;;
54171;SDS011;40076;52.354;4.970;2023-04-25T00:06:47;19.77;;;3.63;;
54171;SDS011;40076;52.354;4.970;2023-04-25T00:09:12;16.67;;;3.22;;
54171;SDS011;40076;52.354;4.970;2023-04-25T00:11:37;19.80;;;5.75;;
54171;SDS011;40076;52.354;4.970;2023-04-25T00:14:03;15.20;;;3.35;;
54171;SDS011;40076;52.354;4.970;2023-04-25T00:16:29;25.85;;;3.60;;
54171;SDS011;40076;52.354;4.970;2023-04-25T00:18:58;17.67;;;4.03;;
54171;SDS011;40076;52.354;4.970;2023-04-25T00:21:23;24.13;;;3.20;;
54171;SDS011;40076;52.354;4.970;2023-04-25T00:23:49;14.50;;;3.20;;
54171;SDS011;40076;52.354;4.970;2023-04-25T00:26:15;15.25;;;3.60;;
54171;SDS011;40076;52.354;4.970;2023-04-25T00:28:40;18.67;;;3.80;;
54171;SDS011;40076;52.354;4.970;2023-04-25T00:31:05;13.65;;;2.75;;
54171;SDS011;40076;52.354;4.970;2023-04-25T00:33:31;12.32;;;2.90;;
54171;SDS011;40076;52.354;4.970;2023-04-25T00:35:56;20.45;;;4.30;;
54171;SDS011;40076;52.354;4.970;2023-04-25T00:38:21;14.43;;;3.45;;
54171;SDS011;40076;52.354;4.970;2023-04-25T00:40:47;20.80;;;4.15;;
54171;SDS011;40076;52.354;4.970;2023-04-25T00:43:12;19.65;;;3.55;;
54171;SDS011;40076;52.354;4.970;2023-04-25T00:45:38;15.73;;;3.08;;
54171;SDS011;40076;52.354;4.970;2023-04-25T00:48:04;21.17;;;4.20;;
54171;SDS011;40076;52.354;4.970;2023-04-25T00:50:30;15.45;;;2.90;;
54171;SDS011;40076;52.354;4.970;2023-04-25T00:52:57;18.92;;;3.20;;
54171;SDS011;40076;52.354;4.970;2023-04-25T00:55:23;15.95;;;3.28;;
54171;SDS011;40076;52.354;4.970;2023-04-25T00:57:48;14.93;;;3.20;;
54171;SDS011;40076;52.354;4.970;2023-04-25T01:00:15;16.48;;;3.35;;
54171;SDS011;40076;52.354;4.970;2023-04-25T01:02:41;19.30;;;4.35;;
54171;SDS011;40076;52.354;4.970;2023-04-25T01:05:07;18.48;;;3.65;;
54171;SDS011;40076;52.354;4.970;2023-04-25T01:07:33;17.27;;;3.67;;
54171;SDS011;40076;52.354;4.970;2023-04-25T01:09:59;18.02;;;3.92;;
54171;SDS011;40076;52.354;4.970;2023-04-25T01:12:24;17.30;;;3.78;;
54171;SDS011;40076;52.354;4.970;2023-04-25T01:14:50;18.88;;;3.53;;
54171;SDS011;40076;52.354;4.970;2023-04-25T01:17:15;16.83;;;2.83;;
54171;SDS011;40076;52.354;4.970;2023-04-25T01:19:41;11.80;;;3.35;;
54171;SDS011;40076;52.354;4.970;2023-04-25T01:22:06;16.48;;;2.72;;
54171;SDS011;40076;52.354;4.970;2023-04-25T01:24:32;19.05;;;3.75;;
54171;SDS011;40076;52.354;4.970;2023-04-25T01:26:58;11.80;;;3.50;;
54171;SDS011;40076;52.354;4.970;2023-04-25T01:29:25;13.77;;;2.97;;
54171;SDS011;40076;52.354;4.970;2023-04-25T01:31:53;18.45;;;3.72;;
54171;SDS011;40076;52.354;4.970;2023-04-25T01:34:18;19.50;;;3.55;;
54171;SDS011;40076;52.354;4.970;2023-04-25T01:36:44;15.85;;;3.13;;
54171;SDS011;40076;52.354;4.970;2023-04-25T01:39:09;13.93;;;2.92;;
54171;SDS011;40076;52.354;4.970;2023-04-25T01:41:35;15.02;;;3.75;;
54171;SDS011;40076;52.354;4.970;2023-04-25T01:44:01;16.75;;;2.63;;
54171;SDS011;40076;52.354;4.970;2023-04-25T01:46:27;15.95;;;3.00;;
54171;SDS011;40076;52.354;4.970;2023-04-25T01:48:53;13.45;;;3.53;;
54171;SDS011;40076;52.354;4.970;2023-04-25T01:51:18;20.20;;;3.75;;
54171;SDS011;40076;52.354;4.970;2023-04-25T01:53:43;18.77;;;3.40;;
54171;SDS011;40076;52.354;4.970;2023-04-25T01:56:09;19.88;;;3.75;;
54171;SDS011;40076;52.354;4.970;2023-04-25T01:58:35;19.65;;;3.58;;
54171;SDS011;40076;52.354;4.970;2023-04-25T02:01:00;20.25;;;3.13;;
54171;SDS011;40076;52.354;4.970;2023-04-25T02:03:25;14.27;;;3.50;;
54171;SDS011;40076;52.354;4.970;2023-04-25T02:05:51;18.10;;;2.90;;
54171;SDS011;40076;52.354;4.970;2023-04-25T02:08:16;20.55;;;3.22;;
54171;SDS011;40076;52.354;4.970;2023-04-25T02:10:42;17.25;;;2.83;;
54171;SDS011;40076;52.354;4.970;2023-04-25T02:13:08;20.15;;;3.05;;
54171;SDS011;40076;52.354;4.970;2023-04-25T02:15:33;18.05;;;3.13;;
54171;SDS011;40076;52.354;4.970;2023-04-25T02:17:59;13.88;;;2.80;;
54171;SDS011;40076;52.354;4.970;2023-04-25T02:20:25;15.30;;;2.80;;
54171;SDS011;40076;52.354;4.970;2023-04-25T02:22:51;18.75;;;2.80;;
54171;SDS011;40076;52.354;4.970;2023-04-25T02:25:17;13.63;;;2.35;;
54171;SDS011;40076;52.354;4.970;2023-04-25T02:27:44;16.08;;;2.58;;
54171;SDS011;40076;52.354;4.970;2023-04-25T02:30:10;17.13;;;2.97;;
54171;SDS011;40076;52.354;4.970;2023-04-25T02:32:36;11.98;;;2.97;;
54171;SDS011;40076;52.354;4.970;2023-04-25T02:35:01;16.38;;;2.97;;
54171;SDS011;40076;52.354;4.970;2023-04-25T02:37:30;15.95;;;3.03;;
54171;SDS011;40076;52.354;4.970;2023-04-25T02:39:56;15.98;;;3.33;;
54171;SDS011;40076;52.354;4.970;2023-04-25T02:42:21;13.50;;;2.67;;
54171;SDS011;40076;52.354;4.970;2023-04-25T02:44:47;16.52;;;2.60;;
54171;SDS011;40076;52.354;4.970;2023-04-25T02:47:12;13.80;;;3.05;;
54171;SDS011;40076;52.354;4.970;2023-04-25T02:49:37;15.25;;;2.85;;
54171;SDS011;40076;52.354;4.970;2023-04-25T02:52:03;12.52;;;2.10;;
54171;SDS011;40076;52.354;4.970;2023-04-25T02:54:28;13.77;;;1.90;;
54171;SDS011;40076;52.354;4.970;2023-04-25T02:56:53;10.38;;;2.33;;
54171;SDS011;40076;52.354;4.970;2023-04-25T02:59:19;9.32;;;2.50;;
54171;SDS011;40076;52.354;4.970;2023-04-25T03:01:44;9.82;;;2.35;;
54171;SDS011;40076;52.354;4.970;2023-04-25T03:04:10;11.73;;;2.50;;
54171;SDS011;40076;52.354;4.970;2023-04-25T03:06:35;8.82;;;2.00;;
54171;SDS011;40076;52.354;4.970;2023-04-25T03:09:00;7.97;;;1.73;;
54171;SDS011;40076;52.354;4.970;2023-04-25T03:11:26;8.32;;;1.90;;
54171;SDS011;40076;52.354;4.970;2023-04-25T03:13:51;10.25;;;1.90;;
54171;SDS011;40076;52.354;4.970;2023-04-25T03:16:16;11.73;;;2.05;;
54171;SDS011;40076;52.354;4.970;2023-04-25T03:18:41;7.90;;;1.80;;
54171;SDS011;40076;52.354;4.970;2023-04-25T03:21:07;15.70;;;2.38;;
54171;SDS011;40076;52.354;4.970;2023-04-25T03:23:32;8.38;;;2.17;;
54171;SDS011;40076;52.354;4.970;2023-04-25T03:25:57;11.90;;;2.90;;
54171;SDS011;40076;52.354;4.970;2023-04-25T03:28:23;11.93;;;1.80;;
54171;SDS011;40076;52.354;4.970;2023-04-25T03:30:48;12.32;;;2.67;;
54171;SDS011;40076;52.354;4.970;2023-04-25T03:33:13;10.98;;;2.08;;
54171;SDS011;40076;52.354;4.970;2023-04-25T03:35:39;8.80;;;1.77;;
54171;SDS011;40076;52.354;4.970;2023-04-25T03:38:04;10.80;;;1.77;;
54171;SDS011;40076;52.354;4.970;2023-04-25T03:40:30;9.98;;;1.80;;
54171;SDS011;40076;52.354;4.970;2023-04-25T03:42:55;14.82;;;2.03;;
54171;SDS011;40076;52.354;4.970;2023-04-25T03:45:20;11.55;;;1.95;;
54171;SDS011;40076;52.354;4.970;2023-04-25T03:47:46;12.75;;;2.40;;
54171;SDS011;40076;52.354;4.970;2023-04-25T03:50:11;12.13;;;2.15;;
54171;SDS011;40076;52.354;4.970;2023-04-25T03:52:36;8.68;;;1.88;;
54171;SDS011;40076;52.354;4.970;2023-04-25T03:55:02;7.75;;;1.73;;
54171;SDS011;40076;52.354;4.970;2023-04-25T03:57:27;7.50;;;1.60;;
54171;SDS011;40076;52.354;4.970;2023-04-25T03:59:53;13.10;;;2.00;;
54171;SDS011;40076;52.354;4.970;2023-04-25T04:02:18;11.40;;;2.15;;
54171;SDS011;40076;52.354;4.970;2023-04-25T04:04:43;8.85;;;1.85;;
54171;SDS011;40076;52.354;4.970;2023-04-25T04:07:09;6.90;;;1.45;;
54171;SDS011;40076;52.354;4.970;2023-04-25T04:09:35;10.18;;;1.83;;
54171;SDS011;40076;52.354;4.970;2023-04-25T04:12:00;7.85;;;2.60;;
54171;SDS011;40076;52.354;4.970;2023-04-25T04:14:26;9.38;;;2.00;;
54171;SDS011;40076;52.354;4.970;2023-04-25T04:16:53;8.43;;;1.60;;
54171;SDS011;40076;52.354;4.970;2023-04-25T04:19:18;8.35;;;2.35;;
54171;SDS011;40076;52.354;4.970;2023-04-25T04:21:43;7.40;;;1.77;;
54171;SDS011;40076;52.354;4.970;2023-04-25T04:24:08;8.55;;;2.70;;
54171;SDS011;40076;52.354;4.970;2023-04-25T04:26:35;11.15;;;2.83;;
54171;SDS011;40076;52.354;4.970;2023-04-25T04:29:01;8.63;;;1.60;;
54171;SDS011;40076;52.354;4.970;2023-04-25T04:31:27;12.57;;;1.70;;
54171;SDS011;40076;52.354;4.970;2023-04-25T04:33:53;8.10;;;2.00;;
54171;SDS011;40076;52.354;4.970;2023-04-25T04:36:18;8.63;;;1.73;;
54171;SDS011;40076;52.354;4.970;2023-04-25T04:38:46;10.13;;;1.92;;
54171;SDS011;40076;52.354;4.970;2023-04-25T04:41:12;13.85;;;1.90;;
54171;SDS011;40076;52.354;4.970;2023-04-25T04:43:37;13.80;;;2.40;;
54171;SDS011;40076;52.354;4.970;2023-04-25T04:46:04;10.60;;;1.90;;
54171;SDS011;40076;52.354;4.970;2023-04-25T04:48:31;10.60;;;2.25;;
54171;SDS011;40076;52.354;4.970;2023-04-25T04:50:59;10.77;;;2.45;;
54171;SDS011;40076;52.354;4.970;2023-04-25T04:53:25;17.90;;;3.75;;
54171;SDS011;40076;52.354;4.970;2023-04-25T04:55:50;10.77;;;2.35;;
54171;SDS011;40076;52.354;4.970;2023-04-25T04:58:15;11.15;;;2.25;;
54171;SDS011;40076;52.354;4.970;2023-04-25T05:00:41;12.75;;;2.25;;
54171;SDS011;40076;52.354;4.970;2023-04-25T05:03:06;6.88;;;3.05;;
54171;SDS011;40076;52.354;4.970;2023-04-25T05:05:31;8.05;;;1.80;;
54171;SDS011;40076;52.354;4.970;2023-04-25T05:07:57;14.52;;;3.03;;
54171;SDS011;40076;52.354;4.970;2023-04-25T05:10:22;11.88;;;2.38;;
54171;SDS011;40076;52.354;4.970;2023-04-25T05:12:47;10.88;;;2.15;;
54171;SDS011;40076;52.354;4.970;2023-04-25T05:15:13;9.88;;;1.92;;
54171;SDS011;40076;52.354;4.970;2023-04-25T05:17:38;13.20;;;2.45;;
54171;SDS011;40076;52.354;4.970;2023-04-25T05:20:05;12.77;;;2.63;;
54171;SDS011;40076;52.354;4.970;2023-04-25T05:22:32;9.07;;;2.03;;
54171;SDS011;40076;52.354;4.970;2023-04-25T05:24:57;13.52;;;2.67;;
54171;SDS011;40076;52.354;4.970;2023-04-25T05:27:24;12.00;;;2.20;;
54171;SDS011;40076;52.354;4.970;2023-04-25T05:29:49;11.40;;;2.35;;
54171;SDS011;40076;52.354;4.970;2023-04-25T05:32:14;10.32;;;2.65;;
54171;SDS011;40076;52.354;4.970;2023-04-25T05:34:40;13.52;;;2.58;;
54171;SDS011;40076;52.354;4.970;2023-04-25T05:37:06;13.05;;;2.70;;
54171;SDS011;40076;52.354;4.970;2023-04-25T05:39:32;12.55;;;3.00;;
54171;SDS011;40076;52.354;4.970;2023-04-25T05:41:57;14.07;;;2.88;;
54171;SDS011;40076;52.354;4.970;2023-04-25T05:44:22;13.45;;;2.88;;
54171;SDS011;40076;52.354;4.970;2023-04-25T05:46:47;12.13;;;2.53;;
54171;SDS011;40076;52.354;4.970;2023-04-25T05:49:13;11.77;;;2.58;;
54171;SDS011;40076;52.354;4.970;2023-04-25T05:51:39;12.85;;;2.88;;
54171;SDS011;40076;52.354;4.970;2023-04-25T05:54:04;13.85;;;2.75;;
54171;SDS011;40076;52.354;4.970;2023-04-25T05:56:29;13.30;;;2.63;;
54171;SDS011;40076;52.354;4.970;2023-04-25T05:58:55;13.95;;;2.75;;
54171;SDS011;40076;52.354;4.970;2023-04-25T06:01:21;9.35;;;2.53;;
54171;SDS011;40076;52.354;4.970;2023-04-25T06:03:47;15.23;;;2.45;;
54171;SDS011;40076;52.354;4.970;2023-04-25T06:06:13;15.25;;;2.75;;
54171;SDS011;40076;52.354;4.970;2023-04-25T06:08:38;11.02;;;2.50;;
54171;SDS011;40076;52.354;4.970;2023-04-25T06:11:03;11.88;;;2.50;;
54171;SDS011;40076;52.354;4.970;2023-04-25T06:13:29;17.23;;;2.83;;
54171;SDS011;40076;52.354;4.970;2023-04-25T06:15:54;13.35;;;2.30;;
54171;SDS011;40076;52.354;4.970;2023-04-25T06:18:20;12.00;;;2.25;;
54171;SDS011;40076;52.354;4.970;2023-04-25T06:20:45;20.05;;;2.65;;
54171;SDS011;40076;52.354;4.970;2023-04-25T06:23:11;13.10;;;2.15;;
54171;SDS011;40076;52.354;4.970;2023-04-25T06:25:36;12.60;;;2.40;;
54171;SDS011;40076;52.354;4.970;2023-04-25T06:28:01;10.98;;;2.58;;
54171;SDS011;40076;52.354;4.970;2023-04-25T06:30:27;9.45;;;1.88;;
54171;SDS011;40076;52.354;4.970;2023-04-25T06:32:52;9.82;;;1.92;;
54171;SDS011;40076;52.354;4.970;2023-04-25T06:35:20;13.93;;;1.92;;
54171;SDS011;40076;52.354;4.970;2023-04-25T06:37:46;9.73;;;2.00;;
54171;SDS011;40076;52.354;4.970;2023-04-25T06:40:11;12.27;;;2.90;;
54171;SDS011;40076;52.354;4.970;2023-04-25T06:42:36;10.55;;;1.67;;
54171;SDS011;40076;52.354;4.970;2023-04-25T06:45:02;11.40;;;1.60;;
54171;SDS011;40076;52.354;4.970;2023-04-25T06:47:27;11.45;;;2.85;;
54171;SDS011;40076;52.354;4.970;2023-04-25T06:49:55;9.52;;;1.90;;
54171;SDS011;40076;52.354;4.970;2023-04-25T06:52:20;12.18;;;2.15;;
54171;SDS011;40076;52.354;4.970;2023-04-25T06:54:46;10.23;;;1.65;;
54171;SDS011;40076;52.354;4.970;2023-04-25T06:57:20;12.57;;;1.92;;
54171;SDS011;40076;52.354;4.970;2023-04-25T06:59:45;11.35;;;1.73;;
54171;SDS011;40076;52.354;4.970;2023-04-25T07:02:11;14.95;;;1.50;;
54171;SDS011;40076;52.354;4.970;2023-04-25T07:04:36;8.95;;;1.40;;
54171;SDS011;40076;52.354;4.970;2023-04-25T07:07:01;12.30;;;1.45;;
54171;SDS011;40076;52.354;4.970;2023-04-25T07:09:28;11.52;;;2.40;;
54171;SDS011;40076;52.354;4.970;2023-04-25T07:11:53;10.48;;;1.80;;
54171;SDS011;40076;52.354;4.970;2023-04-25T07:14:19;12.20;;;1.67;;
54171;SDS011;40076;52.354;4.970;2023-04-25T07:16:45;8.45;;;1.77;;
54171;SDS011;40076;52.354;4.970;2023-04-25T07:19:10;13.73;;;1.75;;
54171;SDS011;40076;52.354;4.970;2023-04-25T07:21:35;10.70;;;1.55;;
54171;SDS011;40076;52.354;4.970;2023-04-25T07:24:01;9.35;;;1.98;;
54171;SDS011;40076;52.354;4.970;2023-04-25T07:26:26;12.15;;;1.85;;
54171;SDS011;40076;52.354;4.970;2023-04-25T07:28:55;11.15;;;1.75;;
54171;SDS011;40076;52.354;4.970;2023-04-25T07:31:23;11.15;;;2.15;;
54171;SDS011;40076;52.354;4.970;2023-04-25T07:33:49;16.13;;;1.83;;
54171;SDS011;40076;52.354;4.970;2023-04-25T07:36:14;10.90;;;1.60;;
54171;SDS011;40076;52.354;4.970;2023-04-25T07:38:40;14.02;;;1.70;;
54171;SDS011;40076;52.354;4.970;2023-04-25T07:41:06;11.40;;;2.40;;
54171;SDS011;40076;52.354;4.970;2023-04-25T07:43:31;18.30;;;1.92;;
54171;SDS011;40076;52.354;4.970;2023-04-25T07:45:56;16.27;;;2.58;;
54171;SDS011;40076;52.354;4.970;2023-04-25T07:48:22;11.45;;;1.55;;
54171;SDS011;40076;52.354;4.970;2023-04-25T07:50:47;10.68;;;2.25;;
54171;SDS011;40076;52.354;4.970;2023-04-25T07:53:12;7.10;;;1.00;;
54171;SDS011;40076;52.354;4.970;2023-04-25T07:55:38;2.85;;;0.57;;
54171;SDS011;40076;52.354;4.970;2023-04-25T07:58:05;4.90;;;1.00;;
54171;SDS011;40076;52.354;4.970;2023-04-25T08:00:31;7.72;;;1.25;;
54171;SDS011;40076;52.354;4.970;2023-04-25T08:02:56;7.95;;;1.60;;
54171;SDS011;40076;52.354;4.970;2023-04-25T08:05:21;8.48;;;1.35;;
54171;SDS011;40076;52.354;4.970;2023-04-25T08:07:47;9.25;;;1.80;;
54171;SDS011;40076;52.354;4.970;2023-04-25T08:10:12;13.43;;;2.20;;
54171;SDS011;40076;52.354;4.970;2023-04-25T08:12:37;8.18;;;1.73;;
54171;SDS011;40076;52.354;4.970;2023-04-25T08:15:03;10.25;;;1.63;;
54171;SDS011;40076;52.354;4.970;2023-04-25T08:17:32;10.88;;;1.30;;
54171;SDS011;40076;52.354;4.970;2023-04-25T08:19:57;17.83;;;1.42;;
54171;SDS011;40076;52.354;4.970;2023-04-25T08:22:25;11.63;;;1.67;;
54171;SDS011;40076;52.354;4.970;2023-04-25T08:24:50;9.65;;;1.50;;
54171;SDS011;40076;52.354;4.970;2023-04-25T08:27:16;10.45;;;1.50;;
54171;SDS011;40076;52.354;4.970;2023-04-25T08:29:43;5.50;;;1.27;;
54171;SDS011;40076;52.354;4.970;2023-04-25T08:32:08;10.75;;;1.50;;
54171;SDS011;40076;52.354;4.970;2023-04-25T08:34:33;10.55;;;1.40;;
54171;SDS011;40076;52.354;4.970;2023-04-25T08:36:58;7.63;;;1.63;;
54171;SDS011;40076;52.354;4.970;2023-04-25T08:39:24;7.55;;;1.48;;
54171;SDS011;40076;52.354;4.970;2023-04-25T08:41:49;8.82;;;1.17;;
54171;SDS011;40076;52.354;4.970;2023-04-25T08:44:15;8.40;;;1.95;;
54171;SDS011;40076;52.354;4.970;2023-04-25T08:46:41;9.60;;;1.70;;
54171;SDS011;40076;52.354;4.970;2023-04-25T08:49:06;13.80;;;1.85;;
54171;SDS011;40076;52.354;4.970;2023-04-25T08:51:33;8.65;;;1.40;;
54171;SDS011;40076;52.354;4.970;2023-04-25T08:54:08;10.75;;;1.48;;
54171;SDS011;40076;52.354;4.970;2023-04-25T08:56:36;9.57;;;1.25;;
54171;SDS011;40076;52.354;4.970;2023-04-25T08:59:03;9.50;;;1.17;;
54171;SDS011;40076;52.354;4.970;2023-04-25T09:01:29;6.95;;;1.27;;
54171;SDS011;40076;52.354;4.970;2023-04-25T09:03:55;10.45;;;1.27;;
54171;SDS011;40076;52.354;4.970;2023-04-25T09:06:22;9.73;;;1.23;;
54171;SDS011;40076;52.354;4.970;2023-04-25T09:08:49;6.05;;;1.27;;
54171;SDS011;40076;52.354;4.970;2023-04-25T09:11:15;9.40;;;1.20;;
54171;SDS011;40076;52.354;4.970;2023-04-25T09:13:40;10.52;;;1.50;;
54171;SDS011;40076;52.354;4.970;2023-04-25T09:16:06;9.23;;;1.45;;
54171;SDS011;40076;52.354;4.970;2023-04-25T09:18:32;8.40;;;1.92;;
54171;SDS011;40076;52.354;4.970;2023-04-25T09:21:08;7.13;;;1.23;;
54171;SDS011;40076;52.354;4.970;2023-04-25T09:23:45;6.55;;;1.00;;
54171;SDS011;40076;52.354;4.970;2023-04-25T09:26:16;6.78;;;1.02;;
54171;SDS011;40076;52.354;4.970;2023-04-25T09:28:43;7.40;;;1.30;;
54171;SDS011;40076;52.354;4.970;2023-04-25T09:31:09;5.40;;;1.25;;
54171;SDS011;40076;52.354;4.970;2023-04-25T09:33:36;8.48;;;1.00;;
54171;SDS011;40076;52.354;4.970;2023-04-25T09:36:06;9.90;;;1.42;;
54171;SDS011;40076;52.354;4.970;2023-04-25T09:38:40;8.73;;;1.00;;
54171;SDS011;40076;52.354;4.970;2023-04-25T09:41:08;8.07;;;1.77;;
54171;SDS011;40076;52.354;4.970;2023-04-25T09:43:34;10.57;;;1.33;;
54171;SDS011;40076;52.354;4.970;2023-04-25T09:46:00;8.45;;;1.73;;
54171;SDS011;40076;52.354;4.970;2023-04-25T09:48:26;9.63;;;1.35;;
54171;SDS011;40076;52.354;4.970;2023-04-25T09:51:09;8.48;;;1.30;;
54171;SDS011;40076;52.354;4.970;2023-04-25T09:53:40;3.33;;;0.85;;
54171;SDS011;40076;52.354;4.970;2023-04-25T09:56:07;10.50;;;1.20;;
54171;SDS011;40076;52.354;4.970;2023-04-25T09:58:34;4.05;;;0.90;;
54171;SDS011;40076;52.354;4.970;2023-04-25T10:01:01;10.15;;;1.08;;
54171;SDS011;40076;52.354;4.970;2023-04-25T10:03:31;7.35;;;1.52;;
54171;SDS011;40076;52.354;4.970;2023-04-25T10:06:01;13.73;;;1.95;;
54171;SDS011;40076;52.354;4.970;2023-04-25T10:08:32;6.75;;;1.30;;
54171;SDS011;40076;52.354;4.970;2023-04-25T10:11:00;6.78;;;1.45;;
54171;SDS011;40076;52.354;4.970;2023-04-25T10:13:27;8.60;;;1.70;;
54171;SDS011;40076;52.354;4.970;2023-04-25T10:15:54;9.45;;;1.27;;
54171;SDS011;40076;52.354;4.970;2023-04-25T10:18:20;3.60;;;0.95;;
54171;SDS011;40076;52.354;4.970;2023-04-25T10:20:46;8.35;;;1.40;;
54171;SDS011;40076;52.354;4.970;2023-04-25T10:23:12;6.47;;;1.20;;
54171;SDS011;40076;52.354;4.970;2023-04-25T10:25:40;5.70;;;0.98;;
54171;SDS011;40076;52.354;4.970;2023-04-25T10:28:06;4.93;;;1.05;;
54171;SDS011;40076;52.354;4.970;2023-04-25T10:30:32;5.95;;;1.40;;
54171;SDS011;40076;52.354;4.970;2023-04-25T10:32:58;5.47;;;1.23;;
54171;SDS011;40076;52.354;4.970;2023-04-25T10:35:25;5.55;;;1.02;;
54171;SDS011;40076;52.354;4.970;2023-04-25T10:38:10;5.78;;;1.02;;
54171;SDS011;40076;52.354;4.970;2023-04-25T10:40:38;7.50;;;1.25;;
54171;SDS011;40076;52.354;4.970;2023-04-25T10:48:46;7.97;;;1.83;;
54171;SDS011;40076;52.354;4.970;2023-04-25T10:51:18;9.13;;;1.67;;
54171;SDS011;40076;52.354;4.970;2023-04-25T10:56:31;10.23;;;1.40;;
54171;SDS011;40076;52.354;4.970;2023-04-25T10:59:05;7.38;;;1.27;;
54171;SDS011;40076;52.354;4.970;2023-04-25T11:01:56;5.68;;;1.25;;
54171;SDS011;40076;52.354;4.970;2023-04-25T11:04:33;9.63;;;1.30;;
54171;SDS011;40076;52.354;4.970;2023-04-25T11:09:38;9.10;;;1.48;;
54171;SDS011;40076;52.354;4.970;2023-04-25T11:12:06;10.02;;;1.27;;
54171;SDS011;40076;52.354;4.970;2023-04-25T11:14:32;7.97;;;1.35;;
54171;SDS011;40076;52.354;4.970;2023-04-25T11:16:58;12.18;;;2.13;;
54171;SDS011;40076;52.354;4.970;2023-04-25T11:19:25;11.35;;;1.40;;
54171;SDS011;40076;52.354;4.970;2023-04-25T11:21:50;13.27;;;2.17;;
54171;SDS011;40076;52.354;4.970;2023-04-25T11:24:29;12.60;;;2.00;;
54171;SDS011;40076;52.354;4.970;2023-04-25T11:27:01;6.78;;;1.38;;
54171;SDS011;40076;52.354;4.970;2023-04-25T11:29:27;5.85;;;0.93;;
54171;SDS011;40076;52.354;4.970;2023-04-25T11:31:54;6.40;;;1.20;;
54171;SDS011;40076;52.354;4.970;2023-04-25T11:34:23;4.82;;;0.90;;
54171;SDS011;40076;52.354;4.970;2023-04-25T11:36:50;5.30;;;1.55;;
54171;SDS011;40076;52.354;4.970;2023-04-25T11:39:17;5.57;;;0.80;;
54171;SDS011;40076;52.354;4.970;2023-04-25T11:41:43;6.35;;;1.95;;
54171;SDS011;40076;52.354;4.970;2023-04-25T11:44:08;8.13;;;1.98;;
54171;SDS011;40076;52.354;4.970;2023-04-25T11:46:33;6.40;;;1.25;;
54171;SDS011;40076;52.354;4.970;2023-04-25T11:48:59;11.75;;;1.30;;
54171;SDS011;40076;52.354;4.970;2023-04-25T11:51:25;9.43;;;1.85;;
54171;SDS011;40076;52.354;4.970;2023-04-25T11:53:51;10.15;;;1.85;;
54171;SDS011;40076;52.354;4.970;2023-04-25T11:56:16;10.73;;;1.20;;
54171;SDS011;40076;52.354;4.970;2023-04-25T12:01:46;9.60;;;1.17;;
54171;SDS011;40076;52.354;4.970;2023-04-25T12:04:14;8.45;;;2.03;;
54171;SDS011;40076;52.354;4.970;2023-04-25T12:06:51;8.55;;;1.30;;
54171;SDS011;40076;52.354;4.970;2023-04-25T12:09:18;7.47;;;1.10;;
54171;SDS011;40076;52.354;4.970;2023-04-25T12:11:52;6.82;;;1.08;;
54171;SDS011;40076;52.354;4.970;2023-04-25T12:16:49;11.18;;;3.00;;
54171;SDS011;40076;52.354;4.970;2023-04-25T12:19:16;5.18;;;1.00;;
54171;SDS011;40076;52.354;4.970;2023-04-25T12:21:43;4.50;;;0.95;;
54171;SDS011;40076;52.354;4.970;2023-04-25T12:24:21;5.97;;;1.00;;
54171;SDS011;40076;52.354;4.970;2023-04-25T12:27:01;5.50;;;1.35;;
54171;SDS011;40076;52.354;4.970;2023-04-25T12:29:29;6.40;;;1.40;;
54171;SDS011;40076;52.354;4.970;2023-04-25T12:31:56;8.05;;;1.33;;
54171;SDS011;40076;52.354;4.970;2023-04-25T12:34:22;8.32;;;0.98;;
54171;SDS011;40076;52.354;4.970;2023-04-25T12:36:48;11.38;;;1.10;;
54171;SDS011;40076;52.354;4.970;2023-04-25T12:39:22;7.82;;;1.75;;
54171;SDS011;40076;52.354;4.970;2023-04-25T12:41:49;8.95;;;2.53;;
54171;SDS011;40076;52.354;4.970;2023-04-25T12:44:15;8.40;;;1.35;;
54171;SDS011;40076;52.354;4.970;2023-04-25T12:46:41;7.82;;;1.52;;
54171;SDS011;40076;52.354;4.970;2023-04-25T12:49:07;5.32;;;1.60;;
54171;SDS011;40076;52.354;4.970;2023-04-25T12:51:33;7.20;;;1.48;;
54171;SDS011;40076;52.354;4.970;2023-04-25T12:53:59;6.45;;;1.23;;
54171;SDS011;40076;52.354;4.970;2023-04-25T12:56:25;8.38;;;1.35;;
54171;SDS011;40076;52.354;4.970;2023-04-25T12:58:52;8.60;;;1.65;;
54171;SDS011;40076;52.354;4.970;2023-04-25T13:01:18;8.52;;;1.48;;
54171;SDS011;40076;52.354;4.970;2023-04-25T13:03:47;8.43;;;1.33;;
54171;SDS011;40076;52.354;4.970;2023-04-25T13:06:13;7.30;;;1.30;;
54171;SDS011;40076;52.354;4.970;2023-04-25T13:08:39;6.82;;;1.27;;
54171;SDS011;40076;52.354;4.970;2023-04-25T13:11:04;8.98;;;1.73;;
54171;SDS011;40076;52.354;4.970;2023-04-25T13:13:30;8.00;;;1.35;;
54171;SDS011;40076;52.354;4.970;2023-04-25T13:16:03;7.22;;;1.42;;
54171;SDS011;40076;52.354;4.970;2023-04-25T13:18:29;10.38;;;1.65;;
54171;SDS011;40076;52.354;4.970;2023-04-25T13:20:55;8.00;;;1.63;;
54171;SDS011;40076;52.354;4.970;2023-04-25T13:23:22;9.05;;;1.35;;
54171;SDS011;40076;52.354;4.970;2023-04-25T13:25:47;8.27;;;1.40;;
54171;SDS011;40076;52.354;4.970;2023-04-25T13:28:13;9.32;;;1.38;;
54171;SDS011;40076;52.354;4.970;2023-04-25T13:30:38;7.80;;;1.23;;
54171;SDS011;40076;52.354;4.970;2023-04-25T13:33:04;7.53;;;1.45;;
54171;SDS011;40076;52.354;4.970;2023-04-25T13:35:31;6.38;;;1.25;;
54171;SDS011;40076;52.354;4.970;2023-04-25T13:37:57;8.55;;;1.33;;
54171;SDS011;40076;52.354;4.970;2023-04-25T13:40:23;9.77;;;1.80;;
54171;SDS011;40076;52.354;4.970;2023-04-25T13:42:48;10.48;;;1.90;;
54171;SDS011;40076;52.354;4.970;2023-04-25T13:45:13;5.50;;;1.10;;
54171;SDS011;40076;52.354;4.970;2023-04-25T13:47:38;7.75;;;1.10;;
54171;SDS011;40076;52.354;4.970;2023-04-25T13:50:04;5.38;;;0.98;;
54171;SDS011;40076;52.354;4.970;2023-04-25T13:52:30;5.25;;;1.10;;
54171;SDS011;40076;52.354;4.970;2023-04-25T13:54:56;6.47;;;1.15;;
54171;SDS011;40076;52.354;4.970;2023-04-25T13:57:22;9.05;;;1.08;;
54171;SDS011;40076;52.354;4.970;2023-04-25T13:59:47;8.73;;;2.33;;
54171;SDS011;40076;52.354;4.970;2023-04-25T14:02:12;8.57;;;1.20;;
54171;SDS011;40076;52.354;4.970;2023-04-25T14:04:41;5.95;;;1.30;;
54171;SDS011;40076;52.354;4.970;2023-04-25T14:07:07;4.78;;;1.20;;
54171;SDS011;40076;52.354;4.970;2023-04-25T14:09:33;6.43;;;1.10;;
54171;SDS011;40076;52.354;4.970;2023-04-25T14:11:58;5.93;;;1.05;;
54171;SDS011;40076;52.354;4.970;2023-04-25T14:14:24;8.45;;;1.17;;
54171;SDS011;40076;52.354;4.970;2023-04-25T14:16:49;7.53;;;1.10;;
54171;SDS011;40076;52.354;4.970;2023-04-25T14:19:16;5.43;;;1.13;;
54171;SDS011;40076;52.354;4.970;2023-04-25T14:21:42;7.07;;;1.42;;
54171;SDS011;40076;52.354;4.970;2023-04-25T14:24:08;7.90;;;1.50;;
54171;SDS011;40076;52.354;4.970;2023-04-25T14:26:34;9.18;;;1.35;;
54171;SDS011;40076;52.354;4.970;2023-04-25T14:29:00;4.32;;;1.50;;
54171;SDS011;40076;52.354;4.970;2023-04-25T14:31:26;2.65;;;0.73;;
54171;SDS011;40076;52.354;4.970;2023-04-25T14:33:51;3.55;;;1.00;;
54171;SDS011;40076;52.354;4.970;2023-04-25T14:36:16;5.45;;;1.20;;
54171;SDS011;40076;52.354;4.970;2023-04-25T14:38:41;6.72;;;1.63;;
54171;SDS011;40076;52.354;4.970;2023-04-25T14:41:07;6.68;;;1.65;;
54171;SDS011;40076;52.354;4.970;2023-04-25T14:43:32;7.80;;;1.30;;
54171;SDS011;40076;52.354;4.970;2023-04-25T14:45:57;8.73;;;1.63;;
54171;SDS011;40076;52.354;4.970;2023-04-25T14:48:23;10.23;;;1.83;;
54171;SDS011;40076;52.354;4.970;2023-04-25T14:50:48;9.20;;;1.77;;
54171;SDS011;40076;52.354;4.970;2023-04-25T14:53:13;7.00;;;1.35;;